sensor_id;sensor_type;location;lat;lon;timestamp;P1;durP1;ratioP1;P2;durP2;ratioP2
37655;SDS011;23498;50.958;3.124;2022-07-12T00:02:19;19.05;;;12.07;;
37655;SDS011;23498;50.958;3.124;2022-07-12T00:04:45;18.63;;;12.85;;
37655;SDS011;23498;50.958;3.124;2022-07-12T00:07:11;18.02;;;12.90;;
37655;SDS011;23498;50.958;3.124;2022-07-12T00:09:37;17.90;;;12.45;;
37655;SDS011;23498;50.958;3.124;2022-07-12T00:12:03;15.27;;;12.30;;
37655;SDS011;23498;50.958;3.124;2022-07-12T00:14:29;17.52;;;12.57;;
37655;SDS011;23498;50.958;3.124;2022-07-12T00:16:56;18.90;;;13.27;;
37655;SDS011;23498;50.958;3.124;2022-07-12T00:19:22;17.73;;;13.65;;
37655;SDS011;23498;50.958;3.124;2022-07-12T00:21:48;19.88;;;13.90;;
37655;SDS011;23498;50.958;3.124;2022-07-12T00:24:14;18.95;;;13.90;;
37655;SDS011;23498;50.958;3.124;2022-07-12T00:26:40;17.25;;;13.18;;
37655;SDS011;23498;50.958;3.124;2022-07-12T00:29:06;19.77;;;13.85;;
37655;SDS011;23498;50.958;3.124;2022-07-12T00:31:32;22.40;;;14.75;;
37655;SDS011;23498;50.958;3.124;2022-07-12T00:33:58;18.55;;;13.98;;
37655;SDS011;23498;50.958;3.124;2022-07-12T00:36:25;20.25;;;13.98;;
37655;SDS011;23498;50.958;3.124;2022-07-12T00:38:51;19.80;;;13.82;;
37655;SDS011;23498;50.958;3.124;2022-07-12T00:41:17;19.52;;;13.95;;
37655;SDS011;23498;50.958;3.124;2022-07-12T00:43:44;19.02;;;13.93;;
37655;SDS011;23498;50.958;3.124;2022-07-12T00:46:10;19.52;;;15.05;;
37655;SDS011;23498;50.958;3.124;2022-07-12T00:48:36;18.90;;;14.52;;
37655;SDS011;23498;50.958;3.124;2022-07-12T00:51:03;20.27;;;15.07;;
37655;SDS011;23498;50.958;3.124;2022-07-12T00:53:29;18.58;;;14.70;;
37655;SDS011;23498;50.958;3.124;2022-07-12T00:55:55;18.75;;;14.65;;
37655;SDS011;23498;50.958;3.124;2022-07-12T00:58:22;17.20;;;14.63;;
37655;SDS011;23498;50.958;3.124;2022-07-12T01:00:48;20.40;;;15.50;;
37655;SDS011;23498;50.958;3.124;2022-07-12T01:03:14;19.40;;;15.57;;
37655;SDS011;23498;50.958;3.124;2022-07-12T01:05:40;20.83;;;15.23;;
37655;SDS011;23498;50.958;3.124;2022-07-12T01:08:06;16.10;;;13.23;;
37655;SDS011;23498;50.958;3.124;2022-07-12T01:10:33;19.65;;;14.40;;
37655;SDS011;23498;50.958;3.124;2022-07-12T01:12:59;21.08;;;15.45;;
37655;SDS011;23498;50.958;3.124;2022-07-12T01:15:27;17.73;;;12.65;;
37655;SDS011;23498;50.958;3.124;2022-07-12T01:17:54;19.15;;;14.30;;
37655;SDS011;23498;50.958;3.124;2022-07-12T01:20:22;21.10;;;14.80;;
37655;SDS011;23498;50.958;3.124;2022-07-12T01:22:54;21.00;;;14.00;;
37655;SDS011;23498;50.958;3.124;2022-07-12T01:25:23;17.52;;;12.85;;
37655;SDS011;23498;50.958;3.124;2022-07-12T01:27:49;18.05;;;13.27;;
37655;SDS011;23498;50.958;3.124;2022-07-12T01:30:15;14.70;;;12.50;;
37655;SDS011;23498;50.958;3.124;2022-07-12T01:32:41;17.60;;;12.70;;
37655;SDS011;23498;50.958;3.124;2022-07-12T01:35:08;16.88;;;14.07;;
37655;SDS011;23498;50.958;3.124;2022-07-12T01:37:36;20.40;;;14.90;;
37655;SDS011;23498;50.958;3.124;2022-07-12T01:40:03;19.48;;;14.65;;
37655;SDS011;23498;50.958;3.124;2022-07-12T01:42:29;19.25;;;12.90;;
37655;SDS011;23498;50.958;3.124;2022-07-12T01:44:56;19.63;;;14.85;;
37655;SDS011;23498;50.958;3.124;2022-07-12T01:47:23;17.70;;;14.73;;
37655;SDS011;23498;50.958;3.124;2022-07-12T01:49:49;19.92;;;14.52;;
37655;SDS011;23498;50.958;3.124;2022-07-12T01:52:16;18.55;;;13.95;;
37655;SDS011;23498;50.958;3.124;2022-07-12T01:54:43;17.63;;;13.00;;
37655;SDS011;23498;50.958;3.124;2022-07-12T01:57:09;17.63;;;12.95;;
37655;SDS011;23498;50.958;3.124;2022-07-12T01:59:35;17.75;;;12.98;;
37655;SDS011;23498;50.958;3.124;2022-07-12T02:02:02;17.27;;;12.90;;
37655;SDS011;23498;50.958;3.124;2022-07-12T02:04:28;15.45;;;13.13;;
37655;SDS011;23498;50.958;3.124;2022-07-12T02:06:55;15.48;;;12.98;;
37655;SDS011;23498;50.958;3.124;2022-07-12T02:09:21;18.50;;;13.95;;
37655;SDS011;23498;50.958;3.124;2022-07-12T02:11:48;17.30;;;13.73;;
37655;SDS011;23498;50.958;3.124;2022-07-12T02:14:14;15.75;;;12.73;;
37655;SDS011;23498;50.958;3.124;2022-07-12T02:16:41;18.23;;;15.15;;
37655;SDS011;23498;50.958;3.124;2022-07-12T02:19:07;18.05;;;14.60;;
37655;SDS011;23498;50.958;3.124;2022-07-12T02:21:33;20.55;;;14.13;;
37655;SDS011;23498;50.958;3.124;2022-07-12T02:24:00;19.48;;;14.45;;
37655;SDS011;23498;50.958;3.124;2022-07-12T02:26:26;18.27;;;14.48;;
37655;SDS011;23498;50.958;3.124;2022-07-12T02:28:52;19.38;;;14.50;;
37655;SDS011;23498;50.958;3.124;2022-07-12T02:31:18;17.08;;;13.88;;
37655;SDS011;23498;50.958;3.124;2022-07-12T02:33:44;16.02;;;13.02;;
37655;SDS011;23498;50.958;3.124;2022-07-12T02:36:10;19.52;;;12.77;;
37655;SDS011;23498;50.958;3.124;2022-07-12T02:38:36;13.93;;;11.38;;
37655;SDS011;23498;50.958;3.124;2022-07-12T02:41:02;15.50;;;12.25;;
37655;SDS011;23498;50.958;3.124;2022-07-12T02:43:29;14.20;;;11.60;;
37655;SDS011;23498;50.958;3.124;2022-07-12T02:46:02;16.17;;;12.00;;
37655;SDS011;23498;50.958;3.124;2022-07-12T02:48:29;17.02;;;12.32;;
37655;SDS011;23498;50.958;3.124;2022-07-12T02:50:55;15.35;;;11.98;;
37655;SDS011;23498;50.958;3.124;2022-07-12T02:53:21;13.20;;;11.15;;
37655;SDS011;23498;50.958;3.124;2022-07-12T02:55:47;15.35;;;12.07;;
37655;SDS011;23498;50.958;3.124;2022-07-12T02:58:14;15.55;;;13.07;;
37655;SDS011;23498;50.958;3.124;2022-07-12T03:00:40;17.38;;;12.43;;
37655;SDS011;23498;50.958;3.124;2022-07-12T03:03:07;15.45;;;13.07;;
37655;SDS011;23498;50.958;3.124;2022-07-12T03:05:33;15.48;;;12.20;;
37655;SDS011;23498;50.958;3.124;2022-07-12T03:08:00;18.77;;;12.73;;
37655;SDS011;23498;50.958;3.124;2022-07-12T03:10:26;17.08;;;11.88;;
37655;SDS011;23498;50.958;3.124;2022-07-12T03:12:52;17.42;;;11.40;;
37655;SDS011;23498;50.958;3.124;2022-07-12T03:15:18;16.15;;;11.95;;
37655;SDS011;23498;50.958;3.124;2022-07-12T03:17:44;14.48;;;11.20;;
37655;SDS011;23498;50.958;3.124;2022-07-12T03:20:10;15.57;;;11.27;;
37655;SDS011;23498;50.958;3.124;2022-07-12T03:22:39;13.15;;;10.98;;
37655;SDS011;23498;50.958;3.124;2022-07-12T03:25:05;15.38;;;11.52;;
37655;SDS011;23498;50.958;3.124;2022-07-12T03:27:32;14.40;;;11.23;;
37655;SDS011;23498;50.958;3.124;2022-07-12T03:29:59;12.70;;;10.23;;
37655;SDS011;23498;50.958;3.124;2022-07-12T03:32:25;18.35;;;12.48;;
37655;SDS011;23498;50.958;3.124;2022-07-12T03:34:51;14.55;;;11.00;;
37655;SDS011;23498;50.958;3.124;2022-07-12T03:37:17;17.73;;;13.27;;
37655;SDS011;23498;50.958;3.124;2022-07-12T03:39:43;16.02;;;11.77;;
37655;SDS011;23498;50.958;3.124;2022-07-12T03:42:09;14.23;;;11.27;;
37655;SDS011;23498;50.958;3.124;2022-07-12T03:44:37;13.43;;;11.60;;
37655;SDS011;23498;50.958;3.124;2022-07-12T03:47:03;14.40;;;11.95;;
37655;SDS011;23498;50.958;3.124;2022-07-12T03:49:29;14.32;;;11.55;;
37655;SDS011;23498;50.958;3.124;2022-07-12T03:51:55;15.02;;;11.70;;
37655;SDS011;23498;50.958;3.124;2022-07-12T03:54:21;15.32;;;12.35;;
37655;SDS011;23498;50.958;3.124;2022-07-12T03:56:47;15.95;;;11.63;;
37655;SDS011;23498;50.958;3.124;2022-07-12T03:59:32;12.32;;;10.35;;
37655;SDS011;23498;50.958;3.124;2022-07-12T04:01:58;15.18;;;11.40;;
37655;SDS011;23498;50.958;3.124;2022-07-12T04:04:24;16.25;;;11.50;;
37655;SDS011;23498;50.958;3.124;2022-07-12T04:06:50;13.68;;;11.02;;
37655;SDS011;23498;50.958;3.124;2022-07-12T04:09:16;14.60;;;11.52;;
37655;SDS011;23498;50.958;3.124;2022-07-12T04:11:42;15.07;;;12.40;;
37655;SDS011;23498;50.958;3.124;2022-07-12T04:14:08;13.93;;;11.00;;
37655;SDS011;23498;50.958;3.124;2022-07-12T04:16:34;13.38;;;10.98;;
37655;SDS011;23498;50.958;3.124;2022-07-12T04:19:00;15.65;;;10.82;;
37655;SDS011;23498;50.958;3.124;2022-07-12T04:21:26;17.75;;;13.05;;
37655;SDS011;23498;50.958;3.124;2022-07-12T04:23:52;19.70;;;13.50;;
37655;SDS011;23498;50.958;3.124;2022-07-12T04:26:19;15.77;;;11.95;;
37655;SDS011;23498;50.958;3.124;2022-07-12T04:28:45;18.35;;;13.15;;
37655;SDS011;23498;50.958;3.124;2022-07-12T04:31:11;16.08;;;12.95;;
37655;SDS011;23498;50.958;3.124;2022-07-12T04:33:37;17.48;;;12.35;;
37655;SDS011;23498;50.958;3.124;2022-07-12T04:36:03;17.33;;;11.95;;
37655;SDS011;23498;50.958;3.124;2022-07-12T04:38:29;17.10;;;12.25;;
37655;SDS011;23498;50.958;3.124;2022-07-12T04:40:56;16.25;;;12.82;;
37655;SDS011;23498;50.958;3.124;2022-07-12T04:43:22;21.17;;;12.65;;
37655;SDS011;23498;50.958;3.124;2022-07-12T04:45:49;20.05;;;13.75;;
37655;SDS011;23498;50.958;3.124;2022-07-12T04:48:15;19.38;;;12.90;;
37655;SDS011;23498;50.958;3.124;2022-07-12T04:50:41;17.15;;;11.90;;
37655;SDS011;23498;50.958;3.124;2022-07-12T04:53:07;17.38;;;12.50;;
37655;SDS011;23498;50.958;3.124;2022-07-12T04:55:33;17.38;;;13.13;;
37655;SDS011;23498;50.958;3.124;2022-07-12T04:57:59;15.25;;;11.73;;
37655;SDS011;23498;50.958;3.124;2022-07-12T05:00:25;16.35;;;11.95;;
37655;SDS011;23498;50.958;3.124;2022-07-12T05:02:51;16.13;;;12.10;;
37655;SDS011;23498;50.958;3.124;2022-07-12T05:05:18;18.63;;;13.25;;
37655;SDS011;23498;50.958;3.124;2022-07-12T05:07:44;19.45;;;12.57;;
37655;SDS011;23498;50.958;3.124;2022-07-12T05:10:10;15.73;;;11.68;;
37655;SDS011;23498;50.958;3.124;2022-07-12T05:12:37;17.90;;;11.73;;
37655;SDS011;23498;50.958;3.124;2022-07-12T05:15:04;14.10;;;11.23;;
37655;SDS011;23498;50.958;3.124;2022-07-12T05:17:30;15.27;;;11.85;;
37655;SDS011;23498;50.958;3.124;2022-07-12T05:19:56;16.63;;;12.00;;
37655;SDS011;23498;50.958;3.124;2022-07-12T05:22:22;15.77;;;11.55;;
37655;SDS011;23498;50.958;3.124;2022-07-12T05:24:48;16.17;;;12.52;;
37655;SDS011;23498;50.958;3.124;2022-07-12T05:27:14;19.00;;;12.65;;
37655;SDS011;23498;50.958;3.124;2022-07-12T05:29:41;21.90;;;12.48;;
37655;SDS011;23498;50.958;3.124;2022-07-12T05:32:07;19.67;;;12.27;;
37655;SDS011;23498;50.958;3.124;2022-07-12T05:34:33;19.08;;;13.18;;
37655;SDS011;23498;50.958;3.124;2022-07-12T05:36:59;20.10;;;12.90;;
37655;SDS011;23498;50.958;3.124;2022-07-12T05:39:25;23.08;;;14.35;;
37655;SDS011;23498;50.958;3.124;2022-07-12T05:41:51;18.60;;;12.95;;
37655;SDS011;23498;50.958;3.124;2022-07-12T05:44:17;15.43;;;11.35;;
37655;SDS011;23498;50.958;3.124;2022-07-12T05:46:44;17.92;;;13.35;;
37655;SDS011;23498;50.958;3.124;2022-07-12T05:49:10;16.80;;;12.27;;
37655;SDS011;23498;50.958;3.124;2022-07-12T05:51:36;18.50;;;12.60;;
37655;SDS011;23498;50.958;3.124;2022-07-12T05:54:20;18.33;;;11.98;;
37655;SDS011;23498;50.958;3.124;2022-07-12T05:56:46;22.20;;;13.75;;
37655;SDS011;23498;50.958;3.124;2022-07-12T05:59:13;18.50;;;12.20;;
37655;SDS011;23498;50.958;3.124;2022-07-12T06:01:39;20.52;;;11.48;;
37655;SDS011;23498;50.958;3.124;2022-07-12T06:04:06;18.00;;;10.98;;
37655;SDS011;23498;50.958;3.124;2022-07-12T06:06:32;19.13;;;12.95;;
37655;SDS011;23498;50.958;3.124;2022-07-12T06:08:58;16.67;;;10.18;;
37655;SDS011;23498;50.958;3.124;2022-07-12T06:11:24;16.83;;;10.95;;
37655;SDS011;23498;50.958;3.124;2022-07-12T06:13:50;14.85;;;10.57;;
37655;SDS011;23498;50.958;3.124;2022-07-12T06:16:16;16.10;;;10.30;;
37655;SDS011;23498;50.958;3.124;2022-07-12T06:18:42;15.35;;;10.63;;
37655;SDS011;23498;50.958;3.124;2022-07-12T06:21:08;13.13;;;10.18;;
37655;SDS011;23498;50.958;3.124;2022-07-12T06:23:34;13.05;;;9.80;;
37655;SDS011;23498;50.958;3.124;2022-07-12T06:26:01;14.93;;;12.80;;
37655;SDS011;23498;50.958;3.124;2022-07-12T06:28:27;17.42;;;12.07;;
37655;SDS011;23498;50.958;3.124;2022-07-12T06:30:53;15.40;;;11.05;;
37655;SDS011;23498;50.958;3.124;2022-07-12T06:33:19;14.70;;;11.18;;
37655;SDS011;23498;50.958;3.124;2022-07-12T06:35:45;13.27;;;9.90;;
37655;SDS011;23498;50.958;3.124;2022-07-12T06:38:11;12.65;;;10.30;;
37655;SDS011;23498;50.958;3.124;2022-07-12T06:40:37;14.50;;;11.25;;
37655;SDS011;23498;50.958;3.124;2022-07-12T06:43:07;13.13;;;9.38;;
37655;SDS011;23498;50.958;3.124;2022-07-12T06:45:33;12.20;;;10.00;;
37655;SDS011;23498;50.958;3.124;2022-07-12T06:47:59;14.52;;;9.25;;
37655;SDS011;23498;50.958;3.124;2022-07-12T06:50:25;11.73;;;10.02;;
37655;SDS011;23498;50.958;3.124;2022-07-12T06:52:51;12.90;;;9.65;;
37655;SDS011;23498;50.958;3.124;2022-07-12T06:55:17;13.68;;;9.68;;
37655;SDS011;23498;50.958;3.124;2022-07-12T06:57:43;15.23;;;10.38;;
37655;SDS011;23498;50.958;3.124;2022-07-12T07:00:09;11.05;;;8.82;;
37655;SDS011;23498;50.958;3.124;2022-07-12T07:02:37;13.32;;;9.98;;
37655;SDS011;23498;50.958;3.124;2022-07-12T07:05:04;14.98;;;9.60;;
37655;SDS011;23498;50.958;3.124;2022-07-12T07:07:30;13.73;;;10.35;;
37655;SDS011;23498;50.958;3.124;2022-07-12T07:09:56;14.07;;;9.85;;
37655;SDS011;23498;50.958;3.124;2022-07-12T07:12:22;13.35;;;10.18;;
37655;SDS011;23498;50.958;3.124;2022-07-12T07:14:48;12.77;;;10.52;;
37655;SDS011;23498;50.958;3.124;2022-07-12T07:17:15;18.02;;;10.98;;
37655;SDS011;23498;50.958;3.124;2022-07-12T07:19:42;15.43;;;10.75;;
37655;SDS011;23498;50.958;3.124;2022-07-12T07:22:08;14.48;;;10.25;;
37655;SDS011;23498;50.958;3.124;2022-07-12T07:24:34;14.57;;;9.18;;
37655;SDS011;23498;50.958;3.124;2022-07-12T07:27:00;12.68;;;7.75;;
37655;SDS011;23498;50.958;3.124;2022-07-12T07:29:26;11.88;;;8.88;;
37655;SDS011;23498;50.958;3.124;2022-07-12T07:32:11;13.70;;;8.32;;
37655;SDS011;23498;50.958;3.124;2022-07-12T07:34:37;10.68;;;7.55;;
37655;SDS011;23498;50.958;3.124;2022-07-12T07:37:03;15.68;;;8.75;;
37655;SDS011;23498;50.958;3.124;2022-07-12T07:39:29;13.50;;;8.88;;
37655;SDS011;23498;50.958;3.124;2022-07-12T07:41:56;13.45;;;8.77;;
37655;SDS011;23498;50.958;3.124;2022-07-12T07:44:22;11.15;;;7.88;;
37655;SDS011;23498;50.958;3.124;2022-07-12T07:46:48;11.13;;;6.93;;
37655;SDS011;23498;50.958;3.124;2022-07-12T07:49:13;8.35;;;6.22;;
37655;SDS011;23498;50.958;3.124;2022-07-12T07:51:39;11.30;;;7.13;;
37655;SDS011;23498;50.958;3.124;2022-07-12T07:54:05;12.90;;;8.10;;
37655;SDS011;23498;50.958;3.124;2022-07-12T07:56:31;10.43;;;7.93;;
37655;SDS011;23498;50.958;3.124;2022-07-12T07:58:57;9.75;;;7.70;;
37655;SDS011;23498;50.958;3.124;2022-07-12T08:01:23;10.80;;;7.38;;
37655;SDS011;23498;50.958;3.124;2022-07-12T08:04:07;15.10;;;8.32;;
37655;SDS011;23498;50.958;3.124;2022-07-12T08:06:33;11.85;;;7.85;;
37655;SDS011;23498;50.958;3.124;2022-07-12T08:09:00;11.07;;;7.10;;
37655;SDS011;23498;50.958;3.124;2022-07-12T08:11:26;9.73;;;6.68;;
37655;SDS011;23498;50.958;3.124;2022-07-12T08:13:52;12.27;;;6.18;;
37655;SDS011;23498;50.958;3.124;2022-07-12T08:16:18;13.27;;;7.43;;
37655;SDS011;23498;50.958;3.124;2022-07-12T08:18:44;9.68;;;6.10;;
37655;SDS011;23498;50.958;3.124;2022-07-12T08:21:10;10.60;;;6.25;;
37655;SDS011;23498;50.958;3.124;2022-07-12T08:23:36;10.73;;;5.88;;
37655;SDS011;23498;50.958;3.124;2022-07-12T08:26:02;9.13;;;5.50;;
37655;SDS011;23498;50.958;3.124;2022-07-12T08:28:28;9.10;;;5.63;;
37655;SDS011;23498;50.958;3.124;2022-07-12T08:30:54;9.90;;;5.07;;
37655;SDS011;23498;50.958;3.124;2022-07-12T08:33:20;6.75;;;4.45;;
37655;SDS011;23498;50.958;3.124;2022-07-12T08:35:46;8.25;;;4.43;;
37655;SDS011;23498;50.958;3.124;2022-07-12T08:38:12;5.78;;;4.00;;
37655;SDS011;23498;50.958;3.124;2022-07-12T08:40:40;6.35;;;4.05;;
37655;SDS011;23498;50.958;3.124;2022-07-12T08:43:07;8.50;;;4.05;;
37655;SDS011;23498;50.958;3.124;2022-07-12T08:45:33;7.28;;;4.05;;
37655;SDS011;23498;50.958;3.124;2022-07-12T08:47:59;8.50;;;4.60;;
37655;SDS011;23498;50.958;3.124;2022-07-12T08:50:25;7.18;;;4.03;;
37655;SDS011;23498;50.958;3.124;2022-07-12T08:52:54;6.85;;;3.65;;
37655;SDS011;23498;50.958;3.124;2022-07-12T08:55:22;5.97;;;3.92;;
37655;SDS011;23498;50.958;3.124;2022-07-12T08:57:49;6.28;;;3.60;;
37655;SDS011;23498;50.958;3.124;2022-07-12T09:00:16;6.85;;;3.33;;
37655;SDS011;23498;50.958;3.124;2022-07-12T09:02:42;5.32;;;3.58;;
37655;SDS011;23498;50.958;3.124;2022-07-12T09:05:10;4.95;;;2.75;;
37655;SDS011;23498;50.958;3.124;2022-07-12T09:07:37;11.35;;;3.45;;
37655;SDS011;23498;50.958;3.124;2022-07-12T09:10:06;6.18;;;2.85;;
37655;SDS011;23498;50.958;3.124;2022-07-12T09:12:36;4.60;;;2.65;;
37655;SDS011;23498;50.958;3.124;2022-07-12T09:17:45;4.53;;;2.22;;
37655;SDS011;23498;50.958;3.124;2022-07-12T09:20:11;3.58;;;2.50;;
37655;SDS011;23498;50.958;3.124;2022-07-12T09:22:42;5.28;;;2.10;;
37655;SDS011;23498;50.958;3.124;2022-07-12T09:25:09;4.82;;;2.08;;
37655;SDS011;23498;50.958;3.124;2022-07-12T09:27:46;6.47;;;2.25;;
37655;SDS011;23498;50.958;3.124;2022-07-12T09:30:13;3.20;;;1.60;;
37655;SDS011;23498;50.958;3.124;2022-07-12T09:41:15;4.95;;;2.08;;
37655;SDS011;23498;50.958;3.124;2022-07-12T09:43:42;5.43;;;2.00;;
37655;SDS011;23498;50.958;3.124;2022-07-12T09:46:08;3.78;;;1.95;;
37655;SDS011;23498;50.958;3.124;2022-07-12T09:48:35;5.95;;;1.92;;
37655;SDS011;23498;50.958;3.124;2022-07-12T09:51:02;3.67;;;1.73;;
37655;SDS011;23498;50.958;3.124;2022-07-12T09:55:56;6.13;;;1.80;;
37655;SDS011;23498;50.958;3.124;2022-07-12T09:58:24;4.30;;;1.67;;
37655;SDS011;23498;50.958;3.124;2022-07-12T10:00:51;6.43;;;1.88;;
37655;SDS011;23498;50.958;3.124;2022-07-12T10:03:21;4.30;;;1.60;;
37655;SDS011;23498;50.958;3.124;2022-07-12T10:05:49;3.55;;;1.50;;
37655;SDS011;23498;50.958;3.124;2022-07-12T10:08:17;3.53;;;1.73;;
37655;SDS011;23498;50.958;3.124;2022-07-12T10:10:43;3.35;;;1.55;;
37655;SDS011;23498;50.958;3.124;2022-07-12T10:13:09;3.95;;;1.20;;
37655;SDS011;23498;50.958;3.124;2022-07-12T10:15:35;3.25;;;1.33;;
37655;SDS011;23498;50.958;3.124;2022-07-12T10:18:01;4.32;;;1.67;;
37655;SDS011;23498;50.958;3.124;2022-07-12T10:20:28;3.55;;;1.35;;
37655;SDS011;23498;50.958;3.124;2022-07-12T10:22:54;4.25;;;1.58;;
37655;SDS011;23498;50.958;3.124;2022-07-12T10:27:56;3.03;;;1.52;;
37655;SDS011;23498;50.958;3.124;2022-07-12T10:30:23;5.93;;;1.45;;
37655;SDS011;23498;50.958;3.124;2022-07-12T10:32:51;4.25;;;1.50;;
37655;SDS011;23498;50.958;3.124;2022-07-12T10:35:19;3.40;;;1.40;;
37655;SDS011;23498;50.958;3.124;2022-07-12T10:40:33;6.63;;;1.48;;
37655;SDS011;23498;50.958;3.124;2022-07-12T10:43:20;3.33;;;1.48;;
37655;SDS011;23498;50.958;3.124;2022-07-12T10:45:46;3.78;;;1.10;;
37655;SDS011;23498;50.958;3.124;2022-07-12T10:56:09;3.85;;;1.25;;
37655;SDS011;23498;50.958;3.124;2022-07-12T10:58:36;3.95;;;1.35;;
37655;SDS011;23498;50.958;3.124;2022-07-12T11:01:04;3.38;;;1.50;;
37655;SDS011;23498;50.958;3.124;2022-07-12T11:03:31;3.78;;;1.50;;
37655;SDS011;23498;50.958;3.124;2022-07-12T11:06:02;2.72;;;1.52;;
37655;SDS011;23498;50.958;3.124;2022-07-12T11:08:28;2.70;;;1.20;;
37655;SDS011;23498;50.958;3.124;2022-07-12T11:10:55;2.83;;;1.00;;
37655;SDS011;23498;50.958;3.124;2022-07-12T11:13:22;4.65;;;1.35;;
37655;SDS011;23498;50.958;3.124;2022-07-12T11:15:57;3.28;;;1.40;;
37655;SDS011;23498;50.958;3.124;2022-07-12T11:18:30;4.68;;;1.25;;
37655;SDS011;23498;50.958;3.124;2022-07-12T11:20:56;3.22;;;1.42;;
37655;SDS011;23498;50.958;3.124;2022-07-12T11:23:24;3.78;;;1.30;;
37655;SDS011;23498;50.958;3.124;2022-07-12T11:25:52;2.83;;;1.30;;
37655;SDS011;23498;50.958;3.124;2022-07-12T11:28:19;3.42;;;1.10;;
37655;SDS011;23498;50.958;3.124;2022-07-12T11:30:52;5.60;;;1.25;;
37655;SDS011;23498;50.958;3.124;2022-07-12T11:33:18;4.75;;;1.20;;
37655;SDS011;23498;50.958;3.124;2022-07-12T11:35:45;5.70;;;1.40;;
37655;SDS011;23498;50.958;3.124;2022-07-12T11:38:11;4.85;;;1.63;;
37655;SDS011;23498;50.958;3.124;2022-07-12T11:40:37;3.78;;;1.40;;
37655;SDS011;23498;50.958;3.124;2022-07-12T11:43:04;5.88;;;1.30;;
37655;SDS011;23498;50.958;3.124;2022-07-12T11:45:31;3.25;;;1.08;;
37655;SDS011;23498;50.958;3.124;2022-07-12T11:47:58;2.00;;;0.95;;
37655;SDS011;23498;50.958;3.124;2022-07-12T11:50:25;3.70;;;1.42;;
37655;SDS011;23498;50.958;3.124;2022-07-12T11:52:51;3.35;;;1.48;;
37655;SDS011;23498;50.958;3.124;2022-07-12T11:55:17;3.05;;;1.05;;
37655;SDS011;23498;50.958;3.124;2022-07-12T11:57:43;3.90;;;0.90;;
37655;SDS011;23498;50.958;3.124;2022-07-12T12:00:16;2.47;;;1.08;;
37655;SDS011;23498;50.958;3.124;2022-07-12T12:02:43;5.30;;;1.10;;
37655;SDS011;23498;50.958;3.124;2022-07-12T12:05:09;1.67;;;0.95;;
37655;SDS011;23498;50.958;3.124;2022-07-12T12:07:36;3.80;;;1.10;;
37655;SDS011;23498;50.958;3.124;2022-07-12T12:10:20;2.22;;;0.70;;
37655;SDS011;23498;50.958;3.124;2022-07-12T12:12:47;1.77;;;0.45;;
37655;SDS011;23498;50.958;3.124;2022-07-12T12:15:14;1.65;;;0.50;;
37655;SDS011;23498;50.958;3.124;2022-07-12T12:18:27;1.17;;;0.60;;
37655;SDS011;23498;50.958;3.124;2022-07-12T12:20:31;1.27;;;0.60;;
37655;SDS011;23498;50.958;3.124;2022-07-12T12:22:57;2.17;;;0.88;;
37655;SDS011;23498;50.958;3.124;2022-07-12T12:25:24;2.08;;;0.90;;
37655;SDS011;23498;50.958;3.124;2022-07-12T12:27:54;2.10;;;0.70;;
37655;SDS011;23498;50.958;3.124;2022-07-12T12:30:20;3.00;;;0.90;;
37655;SDS011;23498;50.958;3.124;2022-07-12T12:35:16;2.60;;;0.95;;
37655;SDS011;23498;50.958;3.124;2022-07-12T12:37:49;9.48;;;0.93;;
37655;SDS011;23498;50.958;3.124;2022-07-12T12:40:19;2.72;;;1.02;;
37655;SDS011;23498;50.958;3.124;2022-07-12T12:42:46;3.13;;;1.10;;
37655;SDS011;23498;50.958;3.124;2022-07-12T12:45:19;2.70;;;0.90;;
37655;SDS011;23498;50.958;3.124;2022-07-12T12:48:01;2.90;;;0.98;;
37655;SDS011;23498;50.958;3.124;2022-07-12T12:50:37;3.00;;;1.27;;
37655;SDS011;23498;50.958;3.124;2022-07-12T12:53:10;2.30;;;1.10;;
37655;SDS011;23498;50.958;3.124;2022-07-12T12:55:36;2.40;;;1.10;;
37655;SDS011;23498;50.958;3.124;2022-07-12T12:58:03;3.10;;;1.00;;
37655;SDS011;23498;50.958;3.124;2022-07-12T13:00:29;2.70;;;0.90;;
37655;SDS011;23498;50.958;3.124;2022-07-12T13:02:59;2.33;;;1.17;;
37655;SDS011;23498;50.958;3.124;2022-07-12T13:05:26;3.55;;;1.15;;
37655;SDS011;23498;50.958;3.124;2022-07-12T13:07:52;2.35;;;0.93;;
37655;SDS011;23498;50.958;3.124;2022-07-12T13:10:18;3.70;;;1.10;;
37655;SDS011;23498;50.958;3.124;2022-07-12T13:12:44;2.85;;;1.10;;
37655;SDS011;23498;50.958;3.124;2022-07-12T13:15:10;2.72;;;0.90;;
37655;SDS011;23498;50.958;3.124;2022-07-12T13:17:37;4.05;;;1.20;;
37655;SDS011;23498;50.958;3.124;2022-07-12T13:20:06;1.75;;;1.02;;
37655;SDS011;23498;50.958;3.124;2022-07-12T13:22:33;3.60;;;1.10;;
37655;SDS011;23498;50.958;3.124;2022-07-12T13:24:59;2.35;;;1.15;;
37655;SDS011;23498;50.958;3.124;2022-07-12T13:27:25;3.92;;;1.00;;
37655;SDS011;23498;50.958;3.124;2022-07-12T13:29:52;5.63;;;1.08;;
37655;SDS011;23498;50.958;3.124;2022-07-12T13:32:18;3.05;;;1.10;;
37655;SDS011;23498;50.958;3.124;2022-07-12T13:34:46;2.75;;;1.08;;
37655;SDS011;23498;50.958;3.124;2022-07-12T13:37:13;1.40;;;0.80;;
37655;SDS011;23498;50.958;3.124;2022-07-12T13:39:39;2.85;;;1.20;;
37655;SDS011;23498;50.958;3.124;2022-07-12T13:42:23;3.45;;;1.20;;
37655;SDS011;23498;50.958;3.124;2022-07-12T13:44:50;4.57;;;1.10;;
37655;SDS011;23498;50.958;3.124;2022-07-12T13:47:16;2.38;;;1.13;;
37655;SDS011;23498;50.958;3.124;2022-07-12T13:49:42;2.47;;;0.80;;
37655;SDS011;23498;50.958;3.124;2022-07-12T13:52:08;3.72;;;1.17;;
37655;SDS011;23498;50.958;3.124;2022-07-12T13:54:34;2.72;;;0.90;;
37655;SDS011;23498;50.958;3.124;2022-07-12T13:57:00;4.00;;;1.08;;
37655;SDS011;23498;50.958;3.124;2022-07-12T13:59:26;4.20;;;1.48;;
37655;SDS011;23498;50.958;3.124;2022-07-12T14:01:52;1.77;;;0.90;;
37655;SDS011;23498;50.958;3.124;2022-07-12T14:04:18;2.63;;;1.02;;
37655;SDS011;23498;50.958;3.124;2022-07-12T14:06:44;2.15;;;1.10;;
37655;SDS011;23498;50.958;3.124;2022-07-12T14:09:12;2.17;;;1.00;;
37655;SDS011;23498;50.958;3.124;2022-07-12T14:11:38;2.10;;;1.30;;
37655;SDS011;23498;50.958;3.124;2022-07-12T14:14:04;3.80;;;1.13;;
37655;SDS011;23498;50.958;3.124;2022-07-12T14:16:31;1.83;;;1.00;;
37655;SDS011;23498;50.958;3.124;2022-07-12T14:18:57;2.58;;;0.88;;
37655;SDS011;23498;50.958;3.124;2022-07-12T14:21:23;4.47;;;1.20;;
37655;SDS011;23498;50.958;3.124;2022-07-12T14:23:52;2.42;;;1.10;;
37655;SDS011;23498;50.958;3.124;2022-07-12T14:26:18;3.33;;;1.10;;
37655;SDS011;23498;50.958;3.124;2022-07-12T14:28:44;3.83;;;1.13;;
37655;SDS011;23498;50.958;3.124;2022-07-12T14:31:10;2.83;;;1.08;;
37655;SDS011;23498;50.958;3.124;2022-07-12T14:33:36;2.45;;;1.00;;
37655;SDS011;23498;50.958;3.124;2022-07-12T14:36:02;3.17;;;1.20;;
37655;SDS011;23498;50.958;3.124;2022-07-12T14:38:28;3.85;;;1.40;;
37655;SDS011;23498;50.958;3.124;2022-07-12T14:40:54;3.38;;;1.25;;
37655;SDS011;23498;50.958;3.124;2022-07-12T14:43:20;3.28;;;1.30;;
37655;SDS011;23498;50.958;3.124;2022-07-12T14:45:46;3.70;;;1.17;;
37655;SDS011;23498;50.958;3.124;2022-07-12T14:48:12;4.00;;;1.15;;
37655;SDS011;23498;50.958;3.124;2022-07-12T14:50:39;3.40;;;1.15;;
37655;SDS011;23498;50.958;3.124;2022-07-12T14:53:05;3.83;;;1.20;;
37655;SDS011;23498;50.958;3.124;2022-07-12T14:55:31;4.40;;;1.10;;
37655;SDS011;23498;50.958;3.124;2022-07-12T14:57:57;2.85;;;1.20;;
37655;SDS011;23498;50.958;3.124;2022-07-12T15:00:23;3.33;;;1.20;;
37655;SDS011;23498;50.958;3.124;2022-07-12T15:02:49;5.07;;;1.33;;